Vernon, Michigan
Current Conditions -  °F | °C
As of 9:33 AM on Saturday 25 Oct 2014 (Local Time) from KRNP Reporting Station
Haze Haze  
Wind Chill: 55°   Ceiling: 1100
Heat Index: 55°   Visibility: 5mi
Dew Point: 52°   Wind: 12mph
Humidity: 91%   Direction: 250°WSW
Pressure: 29.79"   Gusts: NA
Location:  42.94°N, 84.03°W
Report Text: KRNP 251333Z AUTO 25010KT 5SM BR OVC011 13/11 A2979 RMK AO2 T01260111
Loading
Personal Weather Stations






























Interactive Weather Map
Tropical Storm Tracking
New forecast layout! Learn more

10-Day Weather Forecast

Advertisements
Track Severe Weather on mobile